createdAt,value
2023-02-26T00:02:07.354Z,98296.23
2023-02-26T00:04:37.242Z,98278.25
2023-02-26T00:07:07.376Z,98270.83
2023-02-26T00:09:39.618Z,98266.47
2023-02-26T00:12:10.649Z,98248.70
2023-02-26T00:14:40.893Z,98257.98
2023-02-26T00:17:19.439Z,98223.66
2023-02-26T00:19:49.690Z,98204.28
2023-02-26T00:22:20.722Z,98224.95
2023-02-26T00:24:50.796Z,98244.84
2023-02-26T00:27:20.736Z,98259.53
2023-02-26T00:29:51.053Z,98266.55
2023-02-26T00:32:21.492Z,98271.18
2023-02-26T00:34:51.901Z,98275.02
2023-02-26T00:37:24.535Z,98271.25
2023-02-26T00:40:30.018Z,98276.44
2023-02-26T00:43:02.540Z,98263.36
2023-02-26T00:45:36.355Z,98248.39
2023-02-26T00:48:26.290Z,98238.03
2023-02-26T00:51:13.610Z,98224.48
2023-02-26T00:54:02.645Z,98220.39
2023-02-26T00:56:33.295Z,98216.09
2023-02-26T00:59:03.385Z,98203.89
2023-02-26T01:01:34.704Z,98204.23
2023-02-26T01:04:05.863Z,98212.16
2023-02-26T01:06:36.997Z,98210.28
2023-02-26T01:09:34.107Z,98195.30
2023-02-26T01:12:07.930Z,98186.05
2023-02-26T01:14:38.340Z,98193.63
2023-02-26T01:17:16.946Z,98220.64
2023-02-26T01:19:55.070Z,98226.91
2023-02-26T01:22:33.814Z,98227.73
2023-02-26T01:25:09.602Z,98246.58
2023-02-26T01:27:39.635Z,98238.41
2023-02-26T01:30:09.984Z,98233.18
2023-02-26T01:33:00.665Z,98247.34
2023-02-26T01:35:53.145Z,98245.69
2023-02-26T01:38:29.206Z,98244.83
2023-02-26T01:41:07.689Z,98273.69
2023-02-26T01:43:43.164Z,98286.98
2023-02-26T01:46:38.090Z,98249.40
2023-02-26T01:49:08.510Z,98254.56
2023-02-26T01:51:52.412Z,98233.31
2023-02-26T01:54:22.898Z,98233.31
2023-02-26T01:56:55.577Z,98239.52
2023-02-26T01:59:30.658Z,98232.70
2023-02-26T02:02:00.503Z,98248.70
2023-02-26T02:04:30.374Z,98262.00
2023-02-26T02:07:00.216Z,98283.78
2023-02-26T02:09:31.184Z,98255.19
2023-02-26T02:12:12.438Z,98237.49
2023-02-26T02:14:59.786Z,98236.38
2023-02-26T02:17:44.263Z,98233.66
2023-02-26T02:20:30.665Z,98212.92
2023-02-26T02:23:23.988Z,98216.53
2023-02-26T02:26:12.933Z,98207.31
2023-02-26T02:29:06.554Z,98212.77
2023-02-26T02:31:44.741Z,98210.04
2023-02-26T02:34:21.684Z,98205.70
2023-02-26T02:37:03.427Z,98203.83
2023-02-26T02:39:36.635Z,98192.63
2023-02-26T02:42:12.350Z,98189.14
2023-02-26T02:44:43.607Z,98191.92
2023-02-26T02:47:13.405Z,98203.41
2023-02-26T02:49:51.644Z,98202.63
2023-02-26T02:52:27.917Z,98200.75
2023-02-26T02:55:03.111Z,98201.03
2023-02-26T02:57:45.081Z,98192.58
2023-02-26T03:00:15.601Z,98175.39
2023-02-26T03:03:00.180Z,98156.86
2023-02-26T03:05:30.174Z,98169.44
2023-02-26T03:08:02.999Z,98188.78
2023-02-26T03:10:35.874Z,98192.58
2023-02-26T03:13:08.140Z,98190.91
2023-02-26T03:15:51.521Z,98216.78
2023-02-26T03:18:40.273Z,98228.20
2023-02-26T03:21:15.764Z,98230.94
2023-02-26T03:23:54.260Z,98226.56
2023-02-26T03:26:38.977Z,98228.15
2023-02-26T03:29:14.423Z,98229.77
2023-02-26T03:31:47.080Z,98225.68
2023-02-26T03:34:19.759Z,98234.89
2023-02-26T03:36:57.940Z,98232.70
2023-02-26T03:39:33.392Z,98237.02
2023-02-26T03:42:15.743Z,98235.91
2023-02-26T03:44:53.415Z,98228.78
2023-02-26T03:47:23.241Z,98221.16
2023-02-26T03:49:55.911Z,98208.08
2023-02-26T03:52:27.315Z,98177.30
2023-02-26T03:55:05.435Z,98152.80
2023-02-26T03:57:35.909Z,98139.41
2023-02-26T04:00:07.708Z,98157.42
2023-02-26T04:02:43.312Z,98147.89
2023-02-26T04:05:18.926Z,98154.98
2023-02-26T04:07:48.979Z,98146.81
2023-02-26T04:10:20.901Z,98143.86
2023-02-26T04:12:50.836Z,98149.81
2023-02-26T04:15:20.825Z,98149.53
2023-02-26T04:17:50.689Z,98164.52
2023-02-26T04:20:20.653Z,98158.24
2023-02-26T04:22:50.594Z,98138.05
2023-02-26T04:25:20.527Z,98129.88
2023-02-26T04:27:50.438Z,98124.14
2023-02-26T04:30:20.541Z,98124.91
2023-02-26T04:32:50.396Z,98119.18
2023-02-26T04:35:22.731Z,98129.25
2023-02-26T04:37:52.576Z,98134.92
2023-02-26T04:40:23.833Z,98134.86
2023-02-26T04:42:53.780Z,98140.23
2023-02-26T04:45:23.735Z,98155.22
2023-02-26T04:47:53.701Z,98144.05
2023-02-26T04:50:25.891Z,98145.09
2023-02-26T04:52:55.706Z,98140.18
2023-02-26T04:55:25.576Z,98142.62
2023-02-26T04:57:55.438Z,98146.92
2023-02-26T05:00:26.481Z,98139.84
2023-02-26T05:02:56.399Z,98143.63
2023-02-26T05:05:26.217Z,98147.12
2023-02-26T05:07:57.475Z,98140.00
2023-02-26T05:10:27.655Z,98131.55
2023-02-26T05:12:57.510Z,98126.86
2023-02-26T05:15:27.328Z,98122.50
2023-02-26T05:17:57.297Z,98142.31
2023-02-26T05:20:27.127Z,98142.84
2023-02-26T05:22:56.951Z,98138.99
2023-02-26T05:25:27.040Z,98122.91
2023-02-26T05:27:58.843Z,98098.36
2023-02-26T05:30:28.921Z,98104.02
2023-02-26T05:32:58.884Z,98101.02
2023-02-26T05:35:28.745Z,98082.51
2023-02-26T05:37:58.628Z,98091.41
2023-02-26T05:40:28.615Z,98085.67
2023-02-26T05:42:58.441Z,98077.45
2023-02-26T05:45:28.475Z,98092.64
2023-02-26T05:47:58.830Z,98096.97
2023-02-26T05:50:28.684Z,98100.20
2023-02-26T05:52:59.616Z,98103.72
2023-02-26T05:55:29.533Z,98085.71
2023-02-26T05:58:02.764Z,98081.03
2023-02-26T06:00:32.960Z,98065.78
2023-02-26T06:03:03.489Z,98082.36
2023-02-26T06:05:36.357Z,98095.11
2023-02-26T06:08:09.509Z,98092.86
2023-02-26T06:10:39.429Z,98076.54
2023-02-26T06:13:09.372Z,98061.30
2023-02-26T06:15:39.183Z,98056.61
2023-02-26T06:18:09.341Z,98028.81
2023-02-26T06:20:39.384Z,97997.78
2023-02-26T06:23:09.328Z,97986.84
2023-02-26T06:25:39.159Z,97978.38
2023-02-26T06:28:09.077Z,97991.97
2023-02-26T06:30:39.069Z,97978.31
2023-02-26T06:33:11.466Z,97997.34
2023-02-26T06:35:41.378Z,97993.23
2023-02-26T06:38:11.225Z,98010.31
2023-02-26T06:40:41.033Z,97994.22
2023-02-26T06:43:10.932Z,97993.69
2023-02-26T06:45:40.897Z,97980.87
2023-02-26T06:48:10.824Z,97976.20
2023-02-26T06:50:41.321Z,97952.80
2023-02-26T06:53:11.223Z,97937.25
2023-02-26T06:55:43.806Z,97923.34
2023-02-26T06:58:13.902Z,97921.70
2023-02-26T07:00:43.958Z,97915.97
2023-02-26T07:03:15.913Z,97905.86
2023-02-26T07:05:46.169Z,97921.35
2023-02-26T07:08:16.136Z,97941.69
2023-02-26T07:10:47.379Z,97940.02
2023-02-26T07:13:17.525Z,97926.36
2023-02-26T07:15:47.472Z,97931.51
2023-02-26T07:18:17.448Z,97949.41
2023-02-26T07:20:47.290Z,97966.25
2023-02-26T07:23:17.215Z,97966.73
2023-02-26T07:25:47.327Z,97964.55
2023-02-26T07:28:17.195Z,97968.34
2023-02-26T07:30:47.227Z,97990.09
2023-02-26T07:33:17.180Z,98006.08
2023-02-26T07:35:47.022Z,98010.92
2023-02-26T07:38:19.407Z,97998.11
2023-02-26T07:40:48.628Z,97992.08
2023-02-26T07:43:18.509Z,97986.86
2023-02-26T07:45:48.533Z,97974.34
2023-02-26T07:48:18.417Z,97975.42
2023-02-26T07:50:48.254Z,97971.02
2023-02-26T07:53:18.159Z,97962.80
2023-02-26T07:55:48.042Z,97967.95
2023-02-26T07:58:17.888Z,97952.16
2023-02-26T08:00:47.795Z,97947.58
2023-02-26T08:03:17.737Z,97952.70
2023-02-26T08:05:47.575Z,97941.22
2023-02-26T08:08:17.465Z,97944.16
2023-02-26T08:10:47.529Z,97945.23
2023-02-26T08:13:17.434Z,97953.61
2023-02-26T08:15:47.281Z,97953.33
2023-02-26T08:18:17.250Z,97963.59
2023-02-26T08:20:47.118Z,97956.19
2023-02-26T08:23:17.093Z,97963.52
2023-02-26T08:25:46.949Z,97953.19
2023-02-26T08:28:16.784Z,97936.28
2023-02-26T08:30:46.705Z,97939.00
2023-02-26T08:33:16.600Z,97938.72
2023-02-26T08:35:46.495Z,97927.25
2023-02-26T08:38:16.397Z,97916.38
2023-02-26T08:40:46.232Z,97901.16
2023-02-26T08:43:16.050Z,97903.55
2023-02-26T08:45:46.250Z,97904.02
2023-02-26T08:48:16.077Z,97887.16
2023-02-26T08:50:45.905Z,97892.27
2023-02-26T08:53:15.795Z,97897.17
2023-02-26T08:55:45.628Z,97893.89
2023-02-26T08:58:15.504Z,97890.85
2023-02-26T09:00:45.401Z,97901.97
2023-02-26T09:03:15.421Z,97890.25
2023-02-26T09:05:45.319Z,97897.58
2023-02-26T09:08:16.692Z,97887.25
2023-02-26T09:10:46.570Z,97886.14
2023-02-26T09:13:16.438Z,97881.75
2023-02-26T09:15:46.346Z,97876.25
2023-02-26T09:18:16.178Z,97852.89
2023-02-26T09:20:46.174Z,97844.42
2023-02-26T09:23:16.318Z,97846.31
2023-02-26T09:25:46.186Z,97840.59
2023-02-26T09:28:16.106Z,97848.46
2023-02-26T09:30:46.090Z,97850.86
2023-02-26T09:33:16.221Z,97854.11
2023-02-26T09:35:46.035Z,97848.91
2023-02-26T09:38:15.874Z,97839.65
2023-02-26T09:40:54.441Z,97827.97
2023-02-26T09:43:45.025Z,97815.75
2023-02-26T09:46:36.992Z,97812.43
2023-02-26T09:49:19.895Z,97803.69
2023-02-26T09:51:52.084Z,97801.50
2023-02-26T09:54:24.712Z,97799.01
2023-02-26T09:56:54.971Z,97795.73
2023-02-26T09:59:24.811Z,97791.88
2023-02-26T10:02:09.517Z,97792.09
2023-02-26T10:04:53.333Z,97797.52
2023-02-26T10:07:28.879Z,97792.34
2023-02-26T10:10:13.509Z,97794.78
2023-02-26T10:12:43.834Z,97793.92
2023-02-26T10:15:18.982Z,97787.39
2023-02-26T10:18:05.908Z,97791.14
2023-02-26T10:20:52.252Z,97796.29
2023-02-26T10:23:41.631Z,97794.05
2023-02-26T10:26:14.305Z,97796.23
2023-02-26T10:29:07.965Z,97806.80
2023-02-26T10:32:01.820Z,97806.73
2023-02-26T10:34:41.130Z,97790.73
2023-02-26T10:37:25.485Z,97805.37
2023-02-26T10:39:58.290Z,97804.24
2023-02-26T10:42:36.741Z,97809.39
2023-02-26T10:45:33.420Z,97799.56
2023-02-26T10:48:06.494Z,97785.11
2023-02-26T10:50:37.023Z,97780.81
2023-02-26T10:53:09.654Z,97769.14
2023-02-26T10:55:51.052Z,97769.08
2023-02-26T10:58:28.133Z,97772.83
2023-02-26T11:00:58.748Z,97776.08
2023-02-26T11:03:34.053Z,97775.80
2023-02-26T11:06:05.034Z,97774.13
2023-02-26T11:08:37.472Z,97755.88
2023-02-26T11:11:08.050Z,97755.13
2023-02-26T11:13:39.734Z,97745.84
2023-02-26T11:16:15.323Z,97757.40
2023-02-26T11:18:47.140Z,97775.08
2023-02-26T11:21:23.629Z,97775.67
2023-02-26T11:23:56.483Z,97762.48
2023-02-26T11:26:31.858Z,97772.87
2023-02-26T11:29:01.720Z,97774.51
2023-02-26T11:31:32.188Z,97784.36
2023-02-26T11:34:06.609Z,97768.13
2023-02-26T11:36:36.571Z,97763.91
2023-02-26T11:39:09.180Z,97768.63
2023-02-26T11:41:40.476Z,97775.30
2023-02-26T11:44:13.985Z,97777.85
2023-02-26T11:46:49.731Z,97777.38
2023-02-26T11:49:20.952Z,97781.25
2023-02-26T11:51:51.261Z,97773.98
2023-02-26T11:54:26.091Z,97758.88
2023-02-26T11:56:57.333Z,97756.28
2023-02-26T11:59:27.256Z,97752.83
2023-02-26T12:01:57.092Z,97740.66
2023-02-26T12:04:27.968Z,97737.78
2023-02-26T12:06:57.877Z,97744.37
2023-02-26T12:09:28.516Z,97757.79
2023-02-26T12:12:09.743Z,97756.80
2023-02-26T12:14:45.207Z,97762.06
2023-02-26T12:17:50.658Z,97762.41
2023-02-26T12:20:21.141Z,97773.61
2023-02-26T12:22:59.306Z,97769.42
2023-02-26T12:25:37.932Z,97772.52
2023-02-26T12:28:29.701Z,97763.66
2023-02-26T12:31:28.396Z,97754.75
2023-02-26T12:34:25.255Z,97763.61
2023-02-26T12:37:26.189Z,97771.88
2023-02-26T12:40:19.020Z,97785.80
2023-02-26T12:43:03.623Z,97783.19
2023-02-26T12:45:51.262Z,97784.88
2023-02-26T12:48:35.964Z,97784.93
2023-02-26T12:51:25.259Z,97787.75
2023-02-26T12:54:20.744Z,97782.13
2023-02-26T12:56:59.456Z,97772.94
2023-02-26T12:59:41.222Z,97779.56
2023-02-26T13:02:48.310Z,97776.12
2023-02-26T13:05:39.075Z,97770.19
2023-02-26T13:08:36.449Z,97767.82
2023-02-26T13:11:12.938Z,97760.52
2023-02-26T13:14:00.471Z,97745.06
2023-02-26T13:16:48.217Z,97742.15
2023-02-26T13:19:39.035Z,97746.25
2023-02-26T13:22:26.252Z,97740.03
2023-02-26T13:24:58.979Z,97725.92
2023-02-26T13:27:30.691Z,97727.09
2023-02-26T13:30:18.318Z,97732.00
2023-02-26T13:32:48.528Z,97740.48
2023-02-26T13:35:41.088Z,97747.92
2023-02-26T13:38:16.466Z,97748.20
2023-02-26T13:40:54.753Z,97758.08
2023-02-26T13:43:52.834Z,97744.50
2023-02-26T13:46:28.458Z,97732.80
2023-02-26T13:49:04.790Z,97735.57
2023-02-26T13:51:39.724Z,97741.06
2023-02-26T13:54:15.841Z,97745.99
2023-02-26T13:57:15.646Z,97762.93
2023-02-26T13:59:50.217Z,97767.83
2023-02-26T14:02:34.410Z,97763.52
2023-02-26T14:05:08.064Z,97760.25
2023-02-26T14:07:50.335Z,97760.52
2023-02-26T14:10:25.879Z,97763.52
2023-02-26T14:13:07.976Z,97761.38
2023-02-26T14:15:50.813Z,97764.66
2023-02-26T14:18:31.782Z,97769.83
2023-02-26T14:21:32.407Z,97769.83
2023-02-26T14:24:13.827Z,97779.36
2023-02-26T14:26:49.091Z,97778.00
2023-02-26T14:29:23.823Z,97789.70
2023-02-26T14:31:59.398Z,97787.53
2023-02-26T14:34:34.164Z,97779.90
2023-02-26T14:37:08.858Z,97785.63
2023-02-26T14:39:54.018Z,97779.31
2023-02-26T14:42:38.391Z,97782.08
2023-02-26T14:45:35.717Z,97780.72
2023-02-26T14:48:11.359Z,97776.59
2023-02-26T14:50:58.927Z,97774.13
2023-02-26T14:53:56.627Z,97773.63
2023-02-26T14:56:50.867Z,97761.92
2023-02-26T14:59:43.144Z,97749.12
2023-02-26T15:02:25.351Z,97745.58
2023-02-26T15:05:13.008Z,97737.37
2023-02-26T15:08:12.355Z,97737.87
2023-02-26T15:11:02.693Z,97737.59
2023-02-26T15:13:53.120Z,97740.86
2023-02-26T15:16:37.709Z,97752.30
2023-02-26T15:19:28.225Z,97745.49
2023-02-26T15:22:20.503Z,97741.92
2023-02-26T15:24:50.356Z,97735.92
2023-02-26T15:27:20.677Z,97730.71
2023-02-26T15:29:52.095Z,97732.06
2023-02-26T15:32:29.896Z,97721.45
2023-02-26T15:35:08.174Z,97716.27
2023-02-26T15:37:39.710Z,97709.19
2023-02-26T15:40:10.447Z,97701.30
2023-02-26T15:42:41.412Z,97713.27
2023-02-26T15:45:20.026Z,97706.70
2023-02-26T15:47:52.185Z,97694.98
2023-02-26T15:50:22.040Z,97674.27
2023-02-26T15:52:53.037Z,97672.90
2023-02-26T15:55:22.876Z,97666.59
2023-02-26T15:57:52.909Z,97666.59
2023-02-26T16:00:26.477Z,97654.34
2023-02-26T16:02:57.905Z,97645.66
2023-02-26T16:05:31.289Z,97639.37
2023-02-26T16:08:01.199Z,97594.56
2023-02-26T16:10:42.132Z,97618.67
2023-02-26T16:13:15.465Z,97601.25
2023-02-26T16:15:45.428Z,97579.73
2023-02-26T16:18:18.193Z,97591.98
2023-02-26T16:20:49.549Z,97600.97
2023-02-26T16:23:21.998Z,97591.98
2023-02-26T16:25:56.899Z,97588.14
2023-02-26T16:28:35.797Z,97596.30
2023-02-26T16:31:07.987Z,97604.20
2023-02-26T16:33:38.873Z,97590.59
2023-02-26T16:36:17.654Z,97584.36
2023-02-26T16:38:50.569Z,97563.39
2023-02-26T16:41:24.910Z,97557.69
2023-02-26T16:43:59.670Z,97546.28
2023-02-26T16:46:43.898Z,97552.30
2023-02-26T16:49:27.248Z,97564.86
2023-02-26T16:51:57.469Z,97563.50
2023-02-26T16:54:29.438Z,97569.22
2023-02-26T16:57:04.097Z,97567.86
2023-02-26T16:59:36.669Z,97568.41
2023-02-26T17:02:19.972Z,97543.59
2023-02-26T17:04:51.465Z,97528.11
2023-02-26T17:07:27.030Z,97524.02
2023-02-26T17:09:59.500Z,97522.66
2023-02-26T17:12:43.781Z,97514.73
2023-02-26T17:15:21.985Z,97526.71
2023-02-26T17:17:51.980Z,97515.81
2023-02-26T17:20:21.935Z,97518.00
2023-02-26T17:22:51.750Z,97522.08
2023-02-26T17:25:22.724Z,97529.95
2023-02-26T17:27:52.607Z,97531.30
2023-02-26T17:30:24.781Z,97516.87
2023-02-26T17:32:54.773Z,97523.45
2023-02-26T17:35:28.458Z,97516.87
2023-02-26T17:37:58.412Z,97506.25
2023-02-26T17:40:30.413Z,97499.45
2023-02-26T17:43:00.860Z,97488.02
2023-02-26T17:45:30.758Z,97490.97
2023-02-26T17:48:00.657Z,97488.25
2023-02-26T17:50:41.978Z,97482.30
2023-02-26T17:53:11.936Z,97477.63
2023-02-26T17:55:41.773Z,97474.37
2023-02-26T17:58:20.043Z,97474.37
2023-02-26T18:00:51.326Z,97468.65
2023-02-26T18:03:21.318Z,97450.10
2023-02-26T18:05:51.268Z,97441.94
2023-02-26T18:08:26.119Z,97438.94
2023-02-26T18:10:56.057Z,97424.20
2023-02-26T18:13:26.024Z,97413.62
2023-02-26T18:15:57.299Z,97405.73
2023-02-26T18:18:27.217Z,97390.75
2023-02-26T18:20:57.150Z,97383.67
2023-02-26T18:23:27.112Z,97373.84
2023-02-26T18:25:57.141Z,97367.31
2023-02-26T18:28:30.374Z,97365.41
2023-02-26T18:31:00.554Z,97367.55
2023-02-26T18:33:30.473Z,97355.33
2023-02-26T18:36:00.370Z,97355.33
2023-02-26T18:38:30.617Z,97351.28
2023-02-26T18:41:02.056Z,97342.32
2023-02-26T18:43:32.155Z,97327.38
2023-02-26T18:46:03.033Z,97321.95
2023-02-26T18:48:34.410Z,97308.36
2023-02-26T18:51:04.991Z,97297.74
2023-02-26T18:53:36.187Z,97284.70
2023-02-26T18:56:07.462Z,97266.72
2023-02-26T18:58:40.373Z,97249.02
2023-02-26T19:01:09.707Z,97246.58
2023-02-26T19:03:39.634Z,97246.30
2023-02-26T19:06:15.399Z,97240.34
2023-02-26T19:08:45.219Z,97233.53
2023-02-26T19:11:15.077Z,97216.64
2023-02-26T19:13:45.425Z,97208.75
2023-02-26T19:16:15.441Z,97198.67
2023-02-26T19:18:45.392Z,97197.88
2023-02-26T19:21:17.370Z,97176.63
2023-02-26T19:23:47.190Z,97172.55
2023-02-26T19:26:17.021Z,97170.38
2023-02-26T19:28:46.896Z,97173.09
2023-02-26T19:31:16.931Z,97173.36
2023-02-26T19:33:46.876Z,97164.38
2023-02-26T19:36:17.753Z,97160.30
2023-02-26T19:38:49.051Z,97158.94
2023-02-26T19:41:22.167Z,97160.55
2023-02-26T19:43:52.280Z,97157.82
2023-02-26T19:46:22.302Z,97152.38
2023-02-26T19:48:52.206Z,97148.84
2023-02-26T19:51:22.149Z,97146.11
2023-02-26T19:53:52.243Z,97142.03
2023-02-26T19:56:22.106Z,97139.30
2023-02-26T19:58:51.973Z,97131.14
2023-02-26T20:01:21.836Z,97125.69
2023-02-26T20:03:52.122Z,97120.55
2023-02-26T20:06:22.203Z,97124.06
2023-02-26T20:08:54.278Z,97124.06
2023-02-26T20:11:24.348Z,97121.34
2023-02-26T20:13:54.453Z,97121.34
2023-02-26T20:16:24.386Z,97117.80
2023-02-26T20:18:54.278Z,97119.68
2023-02-26T20:21:24.698Z,97104.70
2023-02-26T20:23:57.077Z,97100.09
2023-02-26T20:26:26.974Z,97089.47
2023-02-26T20:28:56.880Z,97077.76
2023-02-26T20:31:27.107Z,97068.23
2023-02-26T20:33:57.236Z,97065.51
2023-02-26T20:36:27.164Z,97049.72
2023-02-26T20:38:57.031Z,97039.89
2023-02-26T20:41:27.297Z,97026.28
2023-02-26T20:43:58.705Z,97027.38
2023-02-26T20:46:29.610Z,97021.12
2023-02-26T20:49:00.472Z,96994.44
2023-02-26T20:51:30.457Z,96994.14
2023-02-26T20:54:00.314Z,96988.99
2023-02-26T20:56:30.166Z,96977.55
2023-02-26T20:59:00.159Z,96958.75
2023-02-26T21:01:31.387Z,96950.88
2023-02-26T21:04:01.222Z,96947.61
2023-02-26T21:06:31.604Z,96943.23
2023-02-26T21:09:01.949Z,96932.07
2023-02-26T21:11:32.557Z,96932.62
2023-02-26T21:14:03.216Z,96923.64
2023-02-26T21:16:36.003Z,96888.47
2023-02-26T21:19:06.532Z,96888.47
2023-02-26T21:21:37.507Z,96892.03
2023-02-26T21:24:07.841Z,96881.15
2023-02-26T21:26:38.638Z,96874.89
2023-02-26T21:29:09.740Z,96870.26
2023-02-26T21:31:39.697Z,96863.45
2023-02-26T21:34:30.272Z,96851.75
2023-02-26T21:36:41.506Z,96849.84
2023-02-26T21:39:11.354Z,96854.22
2023-02-26T21:41:41.258Z,96855.84
2023-02-26T21:44:11.181Z,96841.41
2023-02-26T21:46:41.200Z,96830.78
2023-02-26T21:49:13.411Z,96824.27
2023-02-26T21:51:43.311Z,96807.37
2023-02-26T21:54:13.123Z,96804.66
2023-02-26T21:56:43.054Z,96799.22
2023-02-26T21:59:12.888Z,96784.50
2023-02-26T22:01:42.773Z,96774.45
2023-02-26T22:04:12.878Z,96774.45
2023-02-26T22:06:42.750Z,96752.38
2023-02-26T22:09:12.610Z,96743.15
2023-02-26T22:11:44.675Z,96749.11
2023-02-26T22:14:14.519Z,96702.56
2023-02-26T22:16:44.438Z,96718.09
2023-02-26T22:19:14.639Z,96695.52
2023-02-26T22:21:44.506Z,96679.70
2023-02-26T22:24:14.688Z,96668.81
2023-02-26T22:26:45.298Z,96654.39
2023-02-26T22:29:15.147Z,96649.50
2023-02-26T22:31:45.100Z,96631.81
2023-02-26T22:34:15.051Z,96616.84
2023-02-26T22:36:44.899Z,96601.87
2023-02-26T22:39:15.039Z,96596.42
2023-02-26T22:41:46.027Z,96588.52
2023-02-26T22:44:15.862Z,96565.13
2023-02-26T22:46:45.715Z,96556.16
2023-02-26T22:49:15.613Z,96541.19
2023-02-26T22:51:45.453Z,96523.76
2023-02-26T22:54:15.304Z,96494.37
2023-02-26T22:56:45.218Z,96461.16
2023-02-26T22:59:15.028Z,96425.27
2023-02-26T23:01:44.973Z,96407.84
2023-02-26T23:04:14.984Z,96420.09
2023-02-26T23:06:44.866Z,96418.47
2023-02-26T23:09:14.714Z,96404.02
2023-02-26T23:11:46.985Z,96395.86
2023-02-26T23:14:16.831Z,96386.34
2023-02-26T23:16:46.663Z,96383.62
2023-02-26T23:19:16.585Z,96368.39
2023-02-26T23:21:46.434Z,96358.87
2023-02-26T23:24:16.302Z,96344.16
2023-02-26T23:26:46.472Z,96330.04
2023-02-26T23:29:16.307Z,96315.08
2023-02-26T23:31:46.399Z,96347.44
2023-02-26T23:34:16.402Z,96336.55
2023-02-26T23:36:46.238Z,96362.16
2023-02-26T23:39:15.981Z,96368.40
2023-02-26T23:41:45.906Z,96362.70
2023-02-26T23:44:15.755Z,96370.06
2023-02-26T23:46:45.603Z,96368.97
2023-02-26T23:49:16.821Z,96353.98
2023-02-26T23:51:46.988Z,96338.45
2023-02-26T23:54:16.927Z,96326.20
2023-02-26T23:56:47.533Z,96294.35
2023-02-26T23:59:18.975Z,96292.98
